Time;durP1;ratioP1;P1;durP2;ratioP2;P2;SDS_P1;SDS_P2;PMS_P1;PMS_P2;Temp;Humidity;BMP_temperature;BMP_pressure;BME280_temperature;BME280_humidity;BME280_pressure;Samples;Min_cycle;Max_cycle;Signal;HPM_P1;HPM_P2
2023/07/15 00:01:19;;;;;;;10.33;9.50;;;;;;;18.62;100.00;100901.56;5051906;28;20438;-45
2023/07/15 00:03:47;;;;;;;9.40;8.70;;;;;;;18.62;100.00;100888.88;5049275;28;20441;-47
2023/07/15 00:06:15;;;;;;;8.90;8.30;;;;;;;18.63;100.00;100879.72;5050430;28;20471;-46
2023/07/15 00:08:43;;;;;;;8.50;7.93;;;;;;;18.66;100.00;100878.41;5038993;28;20808;-46
2023/07/15 00:11:15;;;;;;;9.13;8.37;;;;;;;18.68;100.00;100870.84;5051269;28;20454;-49
2023/07/15 00:13:44;;;;;;;9.13;8.43;;;;;;;18.72;100.00;100863.91;5050955;28;20466;-47
2023/07/15 00:16:13;;;;;;;8.80;8.20;;;;;;;18.74;100.00;100857.19;5050644;28;20433;-45
2023/07/15 00:18:41;;;;;;;8.90;7.97;;;;;;;18.77;100.00;100845.06;5050507;28;20450;-47
2023/07/15 00:21:20;;;;;;;10.00;9.13;;;;;;;18.79;100.00;100842.94;5050527;28;20462;-45
2023/07/15 00:23:52;;;;;;;9.27;8.57;;;;;;;18.83;100.00;100843.25;5051046;28;20431;-48
2023/07/15 00:26:21;;;;;;;9.20;8.70;;;;;;;18.85;100.00;100835.72;5050921;28;20590;-42
2023/07/15 00:28:50;;;;;;;8.47;7.77;;;;;;;18.87;100.00;100830.91;5050741;28;20837;-45
2023/07/15 00:31:19;;;;;;;10.13;9.27;;;;;;;18.91;100.00;100830.13;5050777;28;20443;-47
2023/07/15 00:33:48;;;;;;;9.87;8.87;;;;;;;18.90;100.00;100828.50;5050979;28;20800;-43
2023/07/15 00:36:16;;;;;;;9.67;8.70;;;;;;;18.94;100.00;100831.50;5050827;28;20423;-45
2023/07/15 00:38:45;;;;;;;8.60;7.90;;;;;;;18.96;100.00;100815.88;5050459;28;20446;-44
2023/07/15 00:41:18;;;;;;;9.10;8.23;;;;;;;18.98;100.00;100822.69;5050432;28;20501;-42
2023/07/15 00:43:56;;;;;;;7.50;7.00;;;;;;;19.01;100.00;100816.78;5050558;28;20797;-44
2023/07/15 00:46:37;;;;;;;7.83;7.33;;;;;;;19.05;100.00;100811.69;5050522;28;20480;-48
2023/07/15 00:49:11;;;;;;;7.50;7.00;;;;;;;19.07;100.00;100804.97;5050251;28;20469;-43
2023/07/15 00:51:41;;;;;;;8.83;8.00;;;;;;;19.06;100.00;100792.50;5050461;28;20491;-47
2023/07/15 00:54:11;;;;;;;8.00;7.50;;;;;;;19.09;100.00;100788.47;5050274;28;20743;-48
2023/07/15 00:56:40;;;;;;;9.20;8.20;;;;;;;19.08;100.00;100781.44;5037753;28;20453;-44
2023/07/15 00:59:10;;;;;;;9.10;8.30;;;;;;;19.10;100.00;100782.84;5050024;28;20494;-44
2023/07/15 01:01:40;;;;;;;10.10;7.97;;;;;;;19.09;100.00;100773.06;5050597;28;20450;-46
2023/07/15 01:04:08;;;;;;;8.43;7.93;;;;;;;19.10;100.00;100774.72;5048499;28;20497;-45
2023/07/15 01:06:36;;;;;;;7.80;7.40;;;;;;;19.12;100.00;100760.94;5050396;28;20506;-45
2023/07/15 01:09:07;;;;;;;8.80;8.20;;;;;;;19.10;100.00;100760.38;5050171;28;20487;-44
2023/07/15 01:11:35;;;;;;;8.37;7.77;;;;;;;19.10;100.00;100758.50;5050141;28;20454;-47
2023/07/15 01:14:02;;;;;;;8.83;8.10;;;;;;;19.11;100.00;100754.75;5050052;28;20441;-43
2023/07/15 01:16:30;;;;;;;8.30;7.50;;;;;;;19.11;100.00;100754.75;5050253;28;20490;-44
2023/07/15 01:19:00;;;;;;;10.67;7.83;;;;;;;19.10;100.00;100754.97;5050063;28;20458;-43
2023/07/15 01:21:30;;;;;;;7.60;7.10;;;;;;;19.09;100.00;100745.22;5049784;28;20830;-47
2023/07/15 01:23:59;;;;;;;10.33;8.10;;;;;;;19.12;100.00;100745.53;5050783;28;20473;-47
2023/07/15 01:26:27;;;;;;;7.60;7.13;;;;;;;19.09;100.00;100739.81;5050087;28;20526;-47
2023/07/15 01:28:54;;;;;;;7.37;6.87;;;;;;;19.10;100.00;100745.00;5052425;28;20577;-46
2023/07/15 01:31:22;;;;;;;7.70;6.73;;;;;;;19.11;100.00;100740.41;5053485;28;21031;-45
2023/07/15 01:33:51;;;;;;;7.73;7.13;;;;;;;19.10;100.00;100741.47;5053618;28;20426;-50
2023/07/15 01:36:19;;;;;;;8.30;7.70;;;;;;;19.11;100.00;100737.69;5052677;28;20439;-44
2023/07/15 01:38:46;;;;;;;8.07;7.30;;;;;;;19.11;100.00;100726.88;5053543;28;20455;-47
2023/07/15 01:41:15;;;;;;;7.67;7.00;;;;;;;19.11;100.00;100729.59;5053607;28;20441;-48
2023/07/15 01:43:43;;;;;;;7.83;7.23;;;;;;;19.12;100.00;100734.72;5053838;28;20437;-45
2023/07/15 01:46:11;;;;;;;8.07;7.47;;;;;;;19.13;100.00;100727.44;5053867;28;20789;-47
2023/07/15 01:48:39;;;;;;;9.33;7.90;;;;;;;19.13;100.00;100713.94;5052981;28;20520;-43
2023/07/15 01:51:07;;;;;;;7.87;7.37;;;;;;;19.15;100.00;100715.31;5045765;28;20430;-45
2023/07/15 01:53:35;;;;;;;6.97;6.57;;;;;;;19.15;100.00;100712.59;5053438;28;20434;-46
2023/07/15 01:56:03;;;;;;;7.03;6.43;;;;;;;19.18;100.00;100714.81;5053383;28;20461;-43
2023/07/15 01:58:33;;;;;;;6.87;6.20;;;;;;;19.21;100.00;100717.00;5052757;28;20435;-46
2023/07/15 02:01:00;;;;;;;7.20;6.80;;;;;;;19.25;100.00;100711.91;5053666;28;20427;-45
2023/07/15 02:03:28;;;;;;;7.63;7.03;;;;;;;19.28;100.00;100709.50;5053444;28;20951;-44
2023/07/15 02:05:56;;;;;;;8.43;7.53;;;;;;;19.32;100.00;100707.13;5053642;28;20437;-51
2023/07/15 02:08:24;;;;;;;6.80;6.30;;;;;;;19.35;100.00;100701.22;5052920;28;20470;-45
2023/07/15 02:10:51;;;;;;;7.73;7.13;;;;;;;19.39;100.00;100693.38;5053386;28;20805;-43
2023/07/15 02:13:19;;;;;;;6.73;6.27;;;;;;;19.41;100.00;100684.00;5052678;28;20549;-44
2023/07/15 02:15:48;;;;;;;7.40;6.80;;;;;;;19.43;100.00;100687.25;5053575;28;20518;-41
2023/07/15 02:18:16;;;;;;;6.93;6.43;;;;;;;19.46;100.00;100678.63;5053237;28;20434;-45
2023/07/15 02:20:46;;;;;;;7.20;6.50;;;;;;;19.49;100.00;100680.81;5052182;28;20992;-44
2023/07/15 02:23:13;;;;;;;7.07;6.63;;;;;;;19.52;100.00;100676.78;5045829;28;20455;-44
2023/07/15 02:25:42;;;;;;;6.77;6.33;;;;;;;19.52;100.00;100672.19;5052548;28;20443;-44
2023/07/15 02:28:09;;;;;;;6.50;6.10;;;;;;;19.55;100.00;100654.63;5052857;28;20565;-45
2023/07/15 02:30:37;;;;;;;7.57;7.00;;;;;;;19.59;100.00;100658.47;5052383;28;20999;-43
2023/07/15 02:33:06;;;;;;;7.73;7.07;;;;;;;19.59;100.00;100650.34;5052523;28;20477;-42
2023/07/15 02:35:34;;;;;;;6.63;6.13;;;;;;;19.60;100.00;100646.53;5049059;28;20435;-43
2023/07/15 02:38:02;;;;;;;6.57;6.17;;;;;;;19.61;100.00;100631.94;5052799;28;20426;-43
2023/07/15 02:40:30;;;;;;;6.00;5.50;;;;;;;19.63;100.00;100627.91;5051897;28;20860;-42
2023/07/15 02:42:58;;;;;;;7.10;6.40;;;;;;;19.64;100.00;100615.19;5052377;28;20512;-43
2023/07/15 02:45:26;;;;;;;6.93;6.33;;;;;;;19.65;100.00;100617.63;5052479;28;20455;-49
2023/07/15 02:47:54;;;;;;;6.37;5.90;;;;;;;19.65;100.00;100609.53;5052304;28;20502;-43
2023/07/15 02:50:23;;;;;;;7.03;6.17;;;;;;;19.67;100.00;100609.28;5051915;28;20466;-43
2023/07/15 02:52:51;;;;;;;6.17;5.77;;;;;;;19.68;100.00;100608.22;5051910;28;21572;-42
2023/07/15 02:55:19;;;;;;;6.23;5.30;;;;;;;19.69;100.00;100604.41;5052415;28;21605;-45
2023/07/15 02:57:47;;;;;;;8.07;6.30;;;;;;;19.70;100.00;100608.75;5052278;28;20431;-43
2023/07/15 03:00:15;;;;;;;6.43;5.87;;;;;;;19.70;100.00;100595.22;5051851;28;20467;-46
2023/07/15 03:02:47;;;;;;;6.33;5.67;;;;;;;19.70;100.00;100592.53;5051435;28;20451;-43
2023/07/15 03:05:16;;;;;;;5.73;5.43;;;;;;;19.69;100.00;100590.88;5052374;28;20431;-47
2023/07/15 03:07:47;;;;;;;6.43;6.03;;;;;;;19.70;100.00;100587.13;5052446;28;20559;-43
2023/07/15 03:10:15;;;;;;;7.30;6.70;;;;;;;19.71;100.00;100577.94;5051583;28;20478;-47
2023/07/15 03:12:43;;;;;;;6.87;6.00;;;;;;;19.72;100.00;100584.94;5051952;28;20526;-44
2023/07/15 03:15:11;;;;;;;6.07;5.77;;;;;;;19.71;100.00;100576.00;5052276;28;20439;-43
2023/07/15 03:17:38;;;;;;;7.37;6.70;;;;;;;19.72;100.00;100568.72;5051884;28;20980;-41
2023/07/15 03:20:14;;;;;;;6.80;6.30;;;;;;;19.74;100.00;100567.38;5051386;28;20469;-43
2023/07/15 03:22:43;;;;;;;8.00;7.30;;;;;;;19.72;100.00;100568.72;5052056;28;20450;-45
2023/07/15 03:25:12;;;;;;;6.97;6.30;;;;;;;19.75;100.00;100566.31;5051793;28;21099;-43
2023/07/15 03:27:42;;;;;;;6.17;5.77;;;;;;;19.78;100.00;100565.78;5052136;28;20459;-43
2023/07/15 03:30:10;;;;;;;6.93;6.43;;;;;;;19.84;100.00;100561.22;5050966;28;20475;-45
2023/07/15 03:32:39;;;;;;;8.10;6.33;;;;;;;19.86;100.00;100559.88;5051258;28;20869;-45
2023/07/15 03:35:09;;;;;;;6.77;6.07;;;;;;;19.89;100.00;100555.84;5051777;28;20474;-45
2023/07/15 03:37:38;;;;;;;8.33;6.90;;;;;;;19.94;100.00;100550.47;5052190;28;20427;-44
2023/07/15 03:40:08;;;;;;;5.83;5.33;;;;;;;19.97;100.00;100546.41;5051099;28;20463;-42
2023/07/15 03:42:38;;;;;;;6.50;6.00;;;;;;;20.01;100.00;100542.13;5051274;28;20462;-42
2023/07/15 03:45:07;;;;;;;6.83;6.43;;;;;;;20.05;100.00;100552.13;5051276;28;21025;-45
2023/07/15 03:47:35;;;;;;;6.57;6.07;;;;;;;20.08;100.00;100548.09;5051098;28;20458;-43
2023/07/15 03:50:04;;;;;;;6.27;5.77;;;;;;;20.12;100.00;100539.19;5050763;28;20836;-43
2023/07/15 03:52:32;;;;;;;6.87;6.27;;;;;;;20.16;100.00;100537.56;5051076;28;20538;-41
2023/07/15 03:55:00;;;;;;;6.37;5.80;;;;;;;20.20;100.00;100540.56;5051312;28;20489;-42
2023/07/15 03:57:28;;;;;;;5.80;5.40;;;;;;;20.25;100.00;100533.31;5051400;28;20467;-45
2023/07/15 03:59:57;;;;;;;7.10;6.60;;;;;;;20.28;100.00;100526.56;5049460;28;20513;-44
2023/07/15 04:02:25;;;;;;;6.17;5.77;;;;;;;20.30;100.00;100532.53;5050864;28;20450;-44
2023/07/15 04:04:52;;;;;;;7.30;5.93;;;;;;;20.35;100.00;100527.13;5051180;28;20443;-45
2023/07/15 04:07:20;;;;;;;6.30;5.83;;;;;;;20.44;100.00;100520.09;5050785;28;20881;-43
2023/07/15 04:09:48;;;;;;;6.27;5.87;;;;;;;20.49;100.00;100520.09;5050469;28;20493;-46
2023/07/15 04:12:16;;;;;;;6.43;5.80;;;;;;;20.57;100.00;100516.06;5050874;28;20446;-45
2023/07/15 04:14:43;;;;;;;5.77;5.27;;;;;;;20.61;100.00;100517.97;5050505;28;20502;-48
2023/07/15 04:17:12;;;;;;;6.17;5.57;;;;;;;20.66;100.00;100509.06;5050824;28;20435;-47
2023/07/15 04:19:40;;;;;;;5.80;5.30;;;;;;;20.69;100.00;100512.03;5050505;28;20466;-43
2023/07/15 04:22:08;;;;;;;7.70;5.40;;;;;;;20.71;100.00;100503.63;5051109;28;20442;-43
2023/07/15 04:24:35;;;;;;;6.90;6.20;;;;;;;20.67;99.00;100507.97;5050768;28;20473;-44
2023/07/15 04:27:04;;;;;;;6.77;6.10;;;;;;;20.69;99.89;100514.75;5039890;28;20463;-47
2023/07/15 04:29:32;;;;;;;5.40;4.90;;;;;;;20.74;99.99;100509.34;5044507;28;20454;-43
2023/07/15 04:32:00;;;;;;;6.27;5.77;;;;;;;20.81;99.39;100504.47;5042535;28;20454;-44
2023/07/15 04:34:29;;;;;;;6.23;5.73;;;;;;;20.89;97.94;100509.34;5050357;28;20480;-44
2023/07/15 04:36:56;;;;;;;7.50;5.13;;;;;;;20.98;96.52;100498.78;5049994;28;20711;-43
2023/07/15 04:39:25;;;;;;;5.97;4.70;;;;;;;21.22;98.27;100499.91;5050151;28;20489;-42
2023/07/15 04:41:53;;;;;;;7.37;5.80;;;;;;;21.70;96.36;100490.31;5050165;28;20529;-45
2023/07/15 04:44:21;;;;;;;6.47;5.83;;;;;;;22.03;91.42;100488.88;5050209;28;20466;-43
2023/07/15 04:46:48;;;;;;;5.33;4.93;;;;;;;22.32;88.99;100487.09;5050399;28;20840;-43
2023/07/15 04:49:17;;;;;;;5.87;5.37;;;;;;;22.69;85.06;100483.09;5050117;28;20462;-46
2023/07/15 04:51:46;;;;;;;5.70;5.30;;;;;;;22.47;85.28;100488.91;5046802;28;20458;-48
2023/07/15 04:54:14;;;;;;;6.33;5.73;;;;;;;22.31;86.02;100488.19;5050607;28;20474;-45
2023/07/15 04:56:42;;;;;;;5.63;5.23;;;;;;;22.08;86.95;100485.31;5050139;28;20929;-41
2023/07/15 04:59:10;;;;;;;5.20;4.90;;;;;;;21.94;86.42;100485.09;5049489;28;20513;-43
2023/07/15 05:01:38;;;;;;;6.10;5.47;;;;;;;21.78;87.69;100480.78;5049777;28;20477;-43
2023/07/15 05:04:06;;;;;;;9.33;6.27;;;;;;;21.69;89.54;100488.69;5053700;28;20514;-41
2023/07/15 05:06:34;;;;;;;5.57;5.17;;;;;;;21.56;87.30;100477.59;5049757;28;20456;-46
2023/07/15 05:09:04;;;;;;;5.20;4.80;;;;;;;21.51;90.71;100481.94;5053630;28;20493;-43
2023/07/15 05:11:32;;;;;;;6.13;5.50;;;;;;;21.43;88.11;100468.13;5053518;28;20489;-43
2023/07/15 05:14:00;;;;;;;6.73;6.10;;;;;;;21.41;90.27;100464.88;5053735;28;20457;-46
2023/07/15 05:16:28;;;;;;;5.33;5.03;;;;;;;21.43;90.08;100468.13;5048941;28;20462;-43
2023/07/15 05:18:56;;;;;;;5.97;5.37;;;;;;;21.42;90.04;100466.50;5053090;28;20511;-45
2023/07/15 05:21:24;;;;;;;5.73;5.33;;;;;;;21.42;89.75;100466.50;5051651;28;20454;-45
2023/07/15 05:23:51;;;;;;;6.77;5.73;;;;;;;21.41;89.79;100459.47;5053428;28;20438;-43
2023/07/15 05:26:21;;;;;;;6.90;6.30;;;;;;;21.41;90.24;100459.47;5047618;28;20448;-45
2023/07/15 05:28:50;;;;;;;5.10;4.77;;;;;;;21.44;90.58;100458.91;5050558;28;20884;-42
2023/07/15 05:31:18;;;;;;;5.67;5.17;;;;;;;21.48;90.78;100457.25;5052079;28;20925;-43
2023/07/15 05:33:46;;;;;;;8.20;5.20;;;;;;;21.55;90.21;100465.13;5052121;28;20438;-44
2023/07/15 05:36:14;;;;;;;6.73;6.20;;;;;;;21.58;89.68;100468.09;5053778;28;20431;-44
2023/07/15 05:38:44;;;;;;;5.93;5.43;;;;;;;21.61;89.69;100472.16;5037206;28;20423;-44
2023/07/15 05:41:12;;;;;;;5.93;5.43;;;;;;;21.64;89.69;100467.00;5051961;28;20915;-43
2023/07/15 05:43:42;;;;;;;6.40;6.00;;;;;;;21.76;89.15;100469.41;5051975;28;21009;-45
2023/07/15 05:46:10;;;;;;;6.13;5.63;;;;;;;21.84;88.91;100471.53;5046606;28;20497;-51
2023/07/15 05:48:38;;;;;;;6.70;6.20;;;;;;;21.94;89.35;100468.81;5050131;28;20844;-43
2023/07/15 05:51:06;;;;;;;6.77;5.60;;;;;;;21.97;87.53;100471.78;5050345;28;20426;-44
2023/07/15 05:53:33;;;;;;;5.90;5.50;;;;;;;22.00;87.18;100478.56;5040610;28;20435;-45
2023/07/15 05:56:01;;;;;;;7.13;6.50;;;;;;;22.08;88.10;100485.31;5051556;28;20943;-46
2023/07/15 05:58:29;;;;;;;5.93;5.33;;;;;;;22.17;88.49;100476.31;5051800;28;20451;-44
2023/07/15 06:00:58;;;;;;;6.40;5.90;;;;;;;22.22;87.72;100470.06;5052557;28;20834;-50
2023/07/15 06:03:28;;;;;;;5.70;5.23;;;;;;;22.28;86.71;100469.72;5051331;28;20529;-44
2023/07/15 06:06:01;;;;;;;6.40;6.00;;;;;;;22.36;87.95;100480.03;5052481;28;20434;-45
2023/07/15 06:08:29;;;;;;;5.97;5.57;;;;;;;22.44;87.76;100476.72;5050754;28;20458;-44
2023/07/15 06:10:57;;;;;;;5.90;5.53;;;;;;;22.54;86.25;100471.22;5051265;28;21247;-48
2023/07/15 06:13:24;;;;;;;6.17;5.67;;;;;;;22.70;87.01;100471.94;5051257;28;20508;-45
2023/07/15 06:15:58;;;;;;;5.60;5.30;;;;;;;22.78;85.93;100467.81;5039274;28;20526;-45
2023/07/15 06:18:25;;;;;;;6.00;5.70;;;;;;;22.83;85.09;100468.59;5051074;28;20435;-43
2023/07/15 06:20:53;;;;;;;6.00;5.43;;;;;;;22.94;84.12;100461.13;5044862;28;20443;-43
2023/07/15 06:23:21;;;;;;;5.87;5.37;;;;;;;23.03;84.34;100460.25;5050356;28;20458;-50
2023/07/15 06:25:48;;;;;;;5.93;5.50;;;;;;;23.10;82.76;100462.66;5050622;28;20430;-49
2023/07/15 06:28:16;;;;;;;6.13;5.73;;;;;;;23.42;83.02;100462.09;5051087;28;20430;-47
2023/07/15 06:30:48;;;;;;;6.37;5.77;;;;;;;23.54;81.85;100463.31;5050432;28;21023;-43
2023/07/15 06:33:17;;;;;;;5.97;5.27;;;;;;;23.74;80.78;100461.47;5052529;28;20485;-51
2023/07/15 06:35:45;;;;;;;5.83;5.53;;;;;;;25.04;75.55;100471.66;5052255;28;20429;-47
2023/07/15 06:38:12;;;;;;;6.47;5.90;;;;;;;26.84;67.09;100455.41;5052497;28;20435;-46
2023/07/15 06:40:41;;;;;;;6.73;5.93;;;;;;;26.79;70.95;100451.97;5050350;28;20450;-45
2023/07/15 06:43:09;;;;;;;5.20;4.80;;;;;;;26.74;64.32;100452.06;5050053;28;21044;-44
2023/07/15 06:45:37;;;;;;;7.37;6.77;;;;;;;26.60;64.28;100456.78;5049070;28;20474;-46
2023/07/15 06:48:05;;;;;;;5.40;5.00;;;;;;;27.65;60.50;100455.22;5049917;28;20457;-44
2023/07/15 06:50:36;;;;;;;5.37;5.03;;;;;;;28.27;61.28;100443.00;5049887;28;20566;-41
2023/07/15 06:53:04;;;;;;;5.67;5.30;;;;;;;29.77;59.76;100443.69;5047855;28;20995;-48
2023/07/15 06:55:31;;;;;;;5.37;5.07;;;;;;;30.65;55.16;100438.91;5050809;28;20449;-42
2023/07/15 06:57:59;;;;;;;6.90;5.63;;;;;;;31.30;47.28;100431.78;5050615;28;20435;-47
2023/07/15 07:00:27;;;;;;;5.23;4.93;;;;;;;31.83;49.06;100438.25;5050623;28;20293;-47
2023/07/15 07:02:55;;;;;;;5.17;4.87;;;;;;;32.51;45.94;100425.38;5050422;28;20226;-41
2023/07/15 07:05:22;;;;;;;5.03;4.73;;;;;;;32.53;44.74;100425.81;5050512;28;20219;-47
2023/07/15 07:07:51;;;;;;;5.53;5.00;;;;;;;33.06;45.33;100421.81;5051292;28;20196;-47
2023/07/15 07:10:19;;;;;;;5.47;5.05;;;;;;;33.50;41.64;100428.88;5048982;28;20299;-45
2023/07/15 07:12:47;;;;;;;5.22;4.85;;;;;;;33.95;41.99;100422.88;5042246;28;20258;-45
2023/07/15 07:15:15;;;;;;;5.22;4.82;;;;;;;33.46;43.99;100432.72;5047857;28;20202;-47
2023/07/15 07:17:42;;;;;;;4.95;4.55;;;;;;;33.58;41.81;100418.78;5048978;28;20562;-44
2023/07/15 07:20:11;;;;;;;5.78;5.07;;;;;;;34.08;41.37;100421.56;5043389;28;20263;-47
2023/07/15 07:22:39;;;;;;;5.82;5.22;;;;;;;34.21;38.88;100417.56;5041504;28;20216;-50
2023/07/15 07:25:09;;;;;;;8.68;5.07;;;;;;;34.19;40.50;100424.63;5047060;28;20560;-44
2023/07/15 07:27:36;;;;;;;6.22;5.80;;;;;;;34.55;39.82;100423.38;5049161;28;20218;-47
2023/07/15 07:30:05;;;;;;;5.55;5.05;;;;;;;34.80;39.51;100419.16;5046982;28;20262;-44
2023/07/15 07:32:33;;;;;;;5.45;5.10;;;;;;;34.65;37.52;100431.16;5046790;28;20251;-42
2023/07/15 07:35:00;;;;;;;6.18;5.72;;;;;;;34.50;39.78;100423.69;5047117;28;21047;-47
2023/07/15 07:37:28;;;;;;;5.25;4.90;;;;;;;34.95;40.26;100421.84;5049218;28;20211;-48
2023/07/15 07:39:56;;;;;;;5.45;5.07;;;;;;;34.84;37.10;100418.06;5048648;28;20606;-43
2023/07/15 07:42:25;;;;;;;5.72;5.43;;;;;;;34.71;38.19;100421.34;5049764;28;20222;-43
2023/07/15 07:44:54;;;;;;;5.60;5.20;;;;;;;34.62;37.21;100412.50;5049509;28;20265;-43
2023/07/15 07:47:22;;;;;;;6.03;5.55;;;;;;;34.89;38.59;100411.41;5049458;28;20254;-43
2023/07/15 07:49:50;;;;;;;5.63;5.28;;;;;;;34.86;37.37;100415.72;5038576;28;20823;-47
2023/07/15 07:52:18;;;;;;;5.80;5.40;;;;;;;35.09;37.44;100428.84;5041024;28;20212;-50
2023/07/15 07:54:46;;;;;;;6.57;5.45;;;;;;;34.95;36.94;100432.09;5049897;28;20728;-42
2023/07/15 07:57:14;;;;;;;5.63;5.13;;;;;;;34.67;37.52;100426.03;5047303;28;20200;-48
2023/07/15 07:59:43;;;;;;;5.43;5.13;;;;;;;34.50;37.35;100430.00;5049419;28;20224;-47
2023/07/15 08:02:10;;;;;;;5.18;4.88;;;;;;;34.56;37.63;100425.78;5047265;28;20235;-43
2023/07/15 08:04:38;;;;;;;5.55;5.15;;;;;;;34.28;38.68;100414.94;5049005;28;20859;-44
2023/07/15 08:07:06;;;;;;;5.57;5.25;;;;;;;34.00;38.35;100424.53;5050675;28;20571;-45
2023/07/15 08:09:34;;;;;;;5.63;5.22;;;;;;;33.82;38.33;100422.19;5047250;28;20230;-42
2023/07/15 08:12:01;;;;;;;5.38;5.03;;;;;;;33.74;39.52;100425.94;5049994;28;20223;-43
2023/07/15 08:14:29;;;;;;;7.45;5.50;;;;;;;33.54;38.89;100426.22;5049612;28;20206;-44
2023/07/15 08:16:58;;;;;;;5.70;5.40;;;;;;;33.20;39.86;100441.53;5050289;28;20802;-42
2023/07/15 08:19:26;;;;;;;5.75;5.35;;;;;;;32.52;39.79;100441.59;5048183;28;20741;-44
2023/07/15 08:21:55;;;;;;;6.10;5.55;;;;;;;32.27;40.33;100432.56;5049931;28;20220;-44
2023/07/15 08:24:22;;;;;;;6.93;5.55;;;;;;;32.12;40.92;100421.47;5049568;28;20605;-45
2023/07/15 08:26:50;;;;;;;9.27;5.97;;;;;;;31.98;41.49;100426.50;5049706;28;20621;-45
2023/07/15 08:29:18;;;;;;;5.73;5.43;;;;;;;31.85;41.82;100427.66;5049046;28;20223;-45
2023/07/15 08:31:46;;;;;;;5.60;5.23;;;;;;;31.63;42.06;100424.22;5049778;28;20306;-45
2023/07/15 08:34:16;;;;;;;6.57;5.67;;;;;;;31.70;41.94;100427.22;5048740;28;20222;-49
2023/07/15 08:36:44;;;;;;;6.20;5.60;;;;;;;31.68;41.72;100421.28;5050672;28;20192;-47
2023/07/15 08:39:12;;;;;;;6.53;6.03;;;;;;;31.76;41.94;100427.78;5053600;28;20216;-44
2023/07/15 08:41:41;;;;;;;5.80;5.37;;;;;;;31.84;42.34;100418.59;5054092;28;20291;-46
2023/07/15 08:44:10;;;;;;;5.40;5.10;;;;;;;31.83;42.88;100428.03;5049179;28;20234;-44
2023/07/15 08:46:39;;;;;;;5.93;5.40;;;;;;;32.27;42.78;100431.78;5054239;28;20204;-42
2023/07/15 08:49:06;;;;;;;5.57;5.07;;;;;;;32.39;41.93;100439.22;5051815;28;20732;-42
2023/07/15 08:51:36;;;;;;;4.97;4.67;;;;;;;32.55;42.67;100434.56;5053535;28;20223;-45
2023/07/15 08:54:06;;;;;;;5.80;5.30;;;;;;;32.66;42.64;100427.41;5051783;28;20200;-43
2023/07/15 08:56:35;;;;;;;5.20;4.90;;;;;;;32.70;42.46;100433.84;5052895;28;20655;-42
2023/07/15 08:59:06;;;;;;;5.20;4.90;;;;;;;32.65;42.34;100434.88;5053114;28;20306;-47
2023/07/15 09:01:34;;;;;;;4.83;4.53;;;;;;;32.69;43.15;100435.00;5053485;28;20243;-42
2023/07/15 09:04:02;;;;;;;5.03;4.63;;;;;;;32.55;41.87;100437.31;5053515;28;20204;-42
2023/07/15 09:06:30;;;;;;;5.93;5.00;;;;;;;32.42;42.59;100444.03;5047180;28;20220;-44
2023/07/15 09:08:59;;;;;;;5.77;5.43;;;;;;;32.22;42.17;100448.56;5052805;28;20299;-41
2023/07/15 09:11:38;;;;;;;5.30;5.00;;;;;;;32.20;43.00;100440.63;5052652;28;20294;-45
2023/07/15 09:14:12;;;;;;;5.40;5.00;;;;;;;32.29;43.92;100446.00;5050629;28;20612;-42
2023/07/15 09:16:40;;;;;;;5.60;5.20;;;;;;;32.19;43.43;100457.56;5053125;28;20239;-42
2023/07/15 09:19:09;;;;;;;5.10;4.70;;;;;;;32.31;43.33;100452.00;5051973;28;20953;-45
2023/07/15 09:21:36;;;;;;;5.47;5.07;;;;;;;32.42;43.67;100455.88;5052553;28;20223;-43
2023/07/15 09:24:06;;;;;;;5.80;5.30;;;;;;;32.45;43.27;100454.38;5052820;28;20286;-49
2023/07/15 09:26:34;;;;;;;5.17;4.00;;;;;;;32.55;44.26;100449.22;5052331;28;20287;-44
2023/07/15 09:29:02;;;;;;;5.17;4.87;;;;;;;32.65;43.85;100456.16;5051813;28;20247;-45
2023/07/15 09:31:29;;;;;;;5.87;5.47;;;;;;;32.65;44.11;100448.69;5052483;28;20216;-45
2023/07/15 09:34:04;;;;;;;8.77;5.60;;;;;;;32.69;44.09;100459.84;5052941;28;20209;-43
2023/07/15 09:36:32;;;;;;;7.23;5.60;;;;;;;32.70;43.74;100464.22;5051777;28;20199;-44
2023/07/15 09:39:12;;;;;;;5.97;5.67;;;;;;;32.79;43.81;100467.63;5051905;28;20216;-42
2023/07/15 09:41:40;;;;;;;5.20;4.83;;;;;;;32.81;43.99;100468.88;5051699;28;20240;-42
2023/07/15 09:44:08;;;;;;;6.50;5.77;;;;;;;33.00;43.87;100471.00;5050747;28;20206;-43
2023/07/15 09:46:36;;;;;;;6.33;5.93;;;;;;;32.92;42.99;100465.59;5048955;28;20569;-45
2023/07/15 09:49:04;;;;;;;5.80;5.30;;;;;;;32.93;43.66;100468.03;5050957;28;20220;-42
2023/07/15 09:51:34;;;;;;;7.27;5.20;;;;;;;32.83;43.30;100468.50;5052609;28;20268;-42
2023/07/15 09:54:03;;;;;;;5.10;4.80;;;;;;;32.95;43.99;100474.00;5052011;28;20709;-43
2023/07/15 09:56:37;;;;;;;6.20;5.60;;;;;;;32.93;43.75;100475.50;5051898;28;20196;-47
2023/07/15 09:59:12;;;;;;;8.77;7.10;;;;;;;32.70;41.35;100478.03;5051537;28;20277;-44
2023/07/15 10:01:44;;;;;;;7.30;5.97;;;;;;;32.78;42.80;100486.16;5045325;28;20215;-46
2023/07/15 10:04:22;;;;;;;5.67;5.43;;;;;;;32.79;42.71;100486.97;5020881;28;20215;-46
2023/07/15 10:06:50;;;;;;;6.30;5.80;;;;;;;33.04;43.07;100485.69;5059120;28;20199;-45
2023/07/15 10:09:19;;;;;;;6.73;4.83;;;;;;;33.16;43.39;100487.59;5052213;28;20199;-43
2023/07/15 10:11:51;;;;;;;6.70;4.57;;;;;;;33.10;43.50;100487.06;5051388;28;20299;-45
2023/07/15 10:14:20;;;;;;;5.17;4.77;;;;;;;33.10;43.75;100494.53;5051721;28;20311;-41
2023/07/15 10:17:08;;;;;;;5.70;5.20;;;;;;;33.12;43.40;100495.81;5051834;28;20237;-43
2023/07/15 10:19:40;;;;;;;6.50;6.00;;;;;;;33.14;43.91;100493.50;5050585;28;20196;-40
2023/07/15 10:22:08;;;;;;;5.30;4.80;;;;;;;33.12;43.31;100501.34;5051169;28;20210;-47
2023/07/15 10:24:36;;;;;;;5.13;4.67;;;;;;;33.24;42.31;100494.94;5050270;28;20260;-42
2023/07/15 10:27:09;;;;;;;8.03;5.47;;;;;;;33.45;42.85;100500.22;5051810;28;20690;-42
2023/07/15 10:29:37;;;;;;;5.80;5.30;;;;;;;32.84;42.99;100492.22;5027816;28;20755;-43
2023/07/15 10:32:10;;;;;;;5.03;4.77;;;;;;;33.07;42.47;100503.50;5051075;28;20220;-45
2023/07/15 10:34:39;;;;;;;5.80;5.30;;;;;;;33.19;42.54;100503.47;5028021;28;20589;-43
2023/07/15 10:37:10;;;;;;;5.53;5.17;;;;;;;33.08;42.64;100496.88;5050653;28;20196;-43
2023/07/15 10:39:38;;;;;;;8.20;5.10;;;;;;;33.16;42.81;100505.00;5050834;28;20207;-44
2023/07/15 10:42:12;;;;;;;5.13;4.80;;;;;;;33.11;42.49;100499.72;5051277;28;20235;-42
2023/07/15 10:44:41;;;;;;;5.93;4.77;;;;;;;33.07;43.91;100501.59;5027524;28;20216;-43
2023/07/15 10:47:09;;;;;;;4.90;4.70;;;;;;;33.12;43.85;100501.34;5028686;28;20193;-43
2023/07/15 10:49:37;;;;;;;5.33;4.83;;;;;;;33.07;44.43;100509.88;5027621;28;20227;-41
2023/07/15 10:52:06;;;;;;;5.67;5.37;;;;;;;33.07;43.72;100501.59;5049372;28;20698;-42
2023/07/15 10:54:37;;;;;;;4.80;4.60;;;;;;;33.14;43.76;100501.78;5050875;28;20193;-42
2023/07/15 10:57:09;;;;;;;9.90;5.37;;;;;;;33.27;44.53;100500.53;5050616;28;20220;-44
2023/07/15 10:59:40;;;;;;;5.53;5.17;;;;;;;33.17;44.40;100512.13;5048398;28;20646;-42
2023/07/15 11:02:08;;;;;;;6.80;4.67;;;;;;;33.34;44.49;100514.56;5048685;28;20578;-43
2023/07/15 11:04:37;;;;;;;5.67;5.07;;;;;;;33.20;45.19;100510.63;5047781;28;20195;-42
2023/07/15 11:07:07;;;;;;;5.47;4.80;;;;;;;33.31;44.50;100512.50;5048187;28;20238;-42
2023/07/15 11:09:37;;;;;;;5.47;5.07;;;;;;;33.23;45.13;100512.69;5048596;28;20543;-42
2023/07/15 11:12:07;;;;;;;4.63;4.20;;;;;;;33.24;45.15;100512.31;5048085;28;20303;-41
2023/07/15 11:14:42;;;;;;;4.63;4.20;;;;;;;33.43;45.56;100511.63;5047893;28;20196;-42
2023/07/15 11:17:11;;;;;;;4.20;3.90;;;;;;;33.47;44.32;100512.53;5048118;28;20271;-42
2023/07/15 11:19:41;;;;;;;5.00;4.70;;;;;;;33.48;45.04;100511.41;5020465;28;20296;-42
2023/07/15 11:22:10;;;;;;;5.33;4.57;;;;;;;33.07;44.90;100514.56;5048108;28;20204;-40
2023/07/15 11:24:37;;;;;;;4.63;4.30;;;;;;;33.11;45.01;100516.31;5048014;28;20219;-40
2023/07/15 11:27:06;;;;;;;5.27;4.97;;;;;;;33.08;44.72;100519.78;5047569;28;20193;-44
2023/07/15 11:29:34;;;;;;;4.20;4.00;;;;;;;32.98;45.48;100517.47;5023376;28;20314;-43